createdAt,value
2022-12-01T00:01:45.519Z,6.68
2022-12-01T00:10:06.151Z,6.95
2022-12-01T00:18:14.432Z,14.65
2022-12-01T00:26:20.933Z,24.65
2022-12-01T00:34:29.346Z,21.00
2022-12-01T00:42:34.914Z,18.42
2022-12-01T00:50:43.074Z,18.48
2022-12-01T00:58:48.756Z,15.57
2022-12-01T01:06:56.814Z,15.73
2022-12-01T01:15:02.381Z,19.25
2022-12-01T01:23:11.153Z,22.08
2022-12-01T01:31:19.319Z,21.58
2022-12-01T01:39:27.480Z,20.15
2022-12-01T01:47:37.438Z,21.63
2022-12-01T01:55:47.163Z,25.75
2022-12-01T02:03:55.588Z,22.73
2022-12-01T02:12:19.393Z,20.40
2022-12-01T02:20:47.471Z,23.98
2022-12-01T02:29:17.690Z,21.60
2022-12-01T02:37:30.720Z,22.83
2022-12-01T02:45:45.143Z,26.00
2022-12-01T02:53:54.220Z,26.40
2022-12-01T03:02:12.919Z,23.38
2022-12-01T03:10:28.627Z,25.17
2022-12-01T03:18:40.078Z,25.52
2022-12-01T03:26:52.583Z,23.63
2022-12-01T03:35:01.727Z,25.33
2022-12-01T03:43:12.590Z,27.25
2022-12-01T03:51:23.397Z,24.00
2022-12-01T03:59:35.786Z,22.40
2022-12-01T04:07:41.773Z,25.38
2022-12-01T04:15:49.843Z,24.27
2022-12-01T04:24:04.596Z,30.23
2022-12-01T04:32:12.829Z,24.67
2022-12-01T04:40:19.154Z,24.25
2022-12-01T04:48:27.229Z,22.83
2022-12-01T04:56:33.090Z,28.33
2022-12-01T05:04:41.995Z,21.73
2022-12-01T05:12:47.350Z,27.23
2022-12-01T05:21:01.557Z,25.08
2022-12-01T05:29:07.781Z,30.60
2022-12-01T05:37:15.819Z,31.52
2022-12-01T05:45:21.257Z,24.95
2022-12-01T05:53:29.281Z,25.20
2022-12-01T06:01:34.723Z,28.48
2022-12-01T06:09:42.742Z,25.45
2022-12-01T06:17:48.157Z,21.35
2022-12-01T06:25:56.235Z,19.85
2022-12-01T06:34:01.676Z,23.63
2022-12-01T06:42:09.694Z,19.02
2022-12-01T06:50:15.646Z,22.77
2022-12-01T06:58:23.741Z,18.40
2022-12-01T07:06:32.165Z,36.30
2022-12-01T07:14:42.545Z,37.00
2022-12-01T07:22:47.931Z,31.75
2022-12-01T07:30:55.977Z,35.15
2022-12-01T07:39:01.497Z,31.30
2022-12-01T07:47:09.506Z,30.90
2022-12-01T07:55:14.897Z,27.08
2022-12-01T08:03:23.236Z,18.88
2022-12-01T08:11:31.552Z,18.85
2022-12-01T08:19:39.694Z,18.40
2022-12-01T08:27:45.090Z,22.25
2022-12-01T08:35:53.162Z,25.65
2022-12-01T08:44:00.182Z,32.97
2022-12-01T08:52:11.992Z,37.42
2022-12-01T09:00:18.256Z,29.30
2022-12-01T09:08:35.981Z,30.38
2022-12-01T09:16:42.220Z,31.13
2022-12-01T09:24:50.292Z,29.98
2022-12-01T09:32:55.633Z,25.13
2022-12-01T09:41:08.534Z,24.70
2022-12-01T09:49:20.440Z,27.10
2022-12-01T09:57:34.225Z,22.30
2022-12-01T10:14:20.379Z,22.88
2022-12-01T10:22:56.829Z,21.90
2022-12-01T10:31:17.850Z,23.30
2022-12-01T10:39:28.592Z,22.63
2022-12-01T10:47:36.891Z,19.67
2022-12-01T10:55:47.772Z,24.33
2022-12-01T11:03:59.642Z,25.98
2022-12-01T11:12:06.779Z,26.58
2022-12-01T11:20:42.870Z,26.33
2022-12-01T11:28:56.802Z,25.35
2022-12-01T11:37:08.852Z,22.77
2022-12-01T11:45:29.782Z,26.55
2022-12-01T11:53:39.257Z,20.50
2022-12-01T12:02:15.195Z,20.00
2022-12-01T12:10:40.533Z,23.73
2022-12-01T12:19:03.279Z,23.50
2022-12-01T12:27:21.373Z,24.15
2022-12-01T12:35:38.816Z,21.25
2022-12-01T12:43:58.504Z,29.55
2022-12-01T12:52:08.871Z,30.10
2022-12-01T13:00:21.736Z,27.15
2022-12-01T13:08:31.979Z,27.63
2022-12-01T13:16:43.202Z,30.02
2022-12-01T13:24:54.793Z,34.85
2022-12-01T13:33:08.261Z,29.60
2022-12-01T13:41:33.456Z,31.17
2022-12-01T13:49:48.875Z,27.63
2022-12-01T13:58:46.045Z,32.65
2022-12-01T14:07:19.234Z,29.17
2022-12-01T14:15:32.851Z,26.40
2022-12-01T14:32:27.255Z,35.83
2022-12-01T14:40:36.137Z,30.33
2022-12-01T14:48:44.818Z,31.52
2022-12-01T14:57:02.727Z,42.53
2022-12-01T15:05:14.537Z,40.58
2022-12-01T15:13:28.626Z,31.63
2022-12-01T15:21:35.452Z,33.42
2022-12-01T15:29:48.405Z,37.35
2022-12-01T15:37:54.531Z,42.80
2022-12-01T15:46:13.275Z,39.63
2022-12-01T15:54:23.968Z,34.38
2022-12-01T16:02:35.259Z,34.83
2022-12-01T16:10:40.675Z,30.90
2022-12-01T16:18:56.497Z,34.15
2022-12-01T16:27:05.349Z,32.22
2022-12-01T16:35:30.560Z,29.90
2022-12-01T16:43:36.595Z,32.70
2022-12-01T16:52:11.211Z,36.67
2022-12-01T17:00:13.079Z,41.55
2022-12-01T17:08:22.380Z,46.20
2022-12-01T17:16:28.022Z,44.83
2022-12-01T17:24:36.045Z,41.58
2022-12-01T17:32:41.403Z,48.72
2022-12-01T17:40:51.330Z,46.55
2022-12-01T17:48:57.896Z,49.90
2022-12-01T17:57:07.539Z,36.90
2022-12-01T18:05:15.670Z,41.05
2022-12-01T18:13:24.608Z,42.00
2022-12-01T18:21:30.970Z,40.65
2022-12-01T18:29:39.391Z,36.38
2022-12-01T18:37:45.417Z,55.05
2022-12-01T18:45:53.398Z,59.85
2022-12-01T18:54:01.585Z,50.95
2022-12-01T19:02:10.680Z,48.65
2022-12-01T19:10:16.183Z,44.95
2022-12-01T19:18:32.359Z,39.10
2022-12-01T19:26:37.970Z,43.60
2022-12-01T19:34:46.243Z,45.78
2022-12-01T19:42:51.794Z,51.80
2022-12-01T19:51:05.040Z,43.15
2022-12-01T19:59:11.883Z,44.70
2022-12-01T20:07:19.938Z,42.47
2022-12-01T20:15:25.281Z,42.75
2022-12-01T20:23:33.630Z,38.80
2022-12-01T20:31:39.581Z,44.05
2022-12-01T20:39:47.797Z,36.58
2022-12-01T20:47:53.416Z,34.75
2022-12-01T20:56:05.543Z,30.90
2022-12-01T21:04:10.921Z,29.58
2022-12-01T21:12:34.429Z,33.90
2022-12-01T21:20:44.566Z,38.40
2022-12-01T21:28:53.022Z,47.63
2022-12-01T21:37:02.380Z,37.20
2022-12-01T21:45:21.417Z,44.58
2022-12-01T21:53:31.590Z,41.33
2022-12-01T22:01:40.267Z,57.25
2022-12-01T22:09:46.715Z,54.72
2022-12-01T22:17:55.853Z,47.22
2022-12-01T22:26:02.235Z,34.72
2022-12-01T22:34:17.001Z,28.25
2022-12-01T22:42:26.477Z,31.65
2022-12-01T22:50:35.723Z,34.13
2022-12-01T22:58:44.562Z,35.63
2022-12-01T23:07:09.849Z,32.22
2022-12-01T23:15:24.236Z,29.08
2022-12-01T23:23:34.270Z,28.05
2022-12-01T23:31:39.793Z,29.35
2022-12-01T23:39:47.806Z,24.50
2022-12-01T23:47:54.321Z,22.55
2022-12-01T23:56:07.927Z,22.60
